createdAt,value
2022-09-17T00:01:37.287Z,8.40
2022-09-17T00:04:06.771Z,8.40
2022-09-17T00:06:37.078Z,8.40
2022-09-17T00:09:06.415Z,8.30
2022-09-17T00:11:36.930Z,8.30
2022-09-17T00:14:07.230Z,8.20
2022-09-17T00:16:38.707Z,8.20
2022-09-17T00:19:10.210Z,8.30
2022-09-17T00:21:41.283Z,8.30
2022-09-17T00:24:11.888Z,8.30
2022-09-17T00:26:40.622Z,8.40
2022-09-17T00:29:09.460Z,8.30
2022-09-17T00:31:38.219Z,8.30
2022-09-17T00:34:07.030Z,8.30
2022-09-17T00:36:36.503Z,8.30
2022-09-17T00:39:07.511Z,8.40
2022-09-17T00:41:36.864Z,8.40
2022-09-17T00:44:20.205Z,8.40
2022-09-17T00:46:50.565Z,8.40
2022-09-17T00:49:21.618Z,8.40
2022-09-17T00:51:57.055Z,8.40
2022-09-17T00:54:29.796Z,8.40
2022-09-17T00:56:58.865Z,8.40
2022-09-17T00:59:27.916Z,8.40
2022-09-17T01:01:56.667Z,8.40
2022-09-17T01:04:26.149Z,8.30
2022-09-17T01:06:58.891Z,8.20
2022-09-17T01:09:36.773Z,8.10
2022-09-17T01:12:12.723Z,8.20
2022-09-17T01:14:47.799Z,8.20
2022-09-17T01:17:20.551Z,8.10
2022-09-17T01:20:14.444Z,8.10
2022-09-17T01:22:48.354Z,8.10
2022-09-17T01:25:25.039Z,8.10
2022-09-17T01:28:08.284Z,8.10
2022-09-17T01:30:54.318Z,8.00
2022-09-17T01:33:28.794Z,8.00
2022-09-17T01:36:03.422Z,7.90
2022-09-17T01:38:34.620Z,7.90
2022-09-17T01:41:07.881Z,8.00
2022-09-17T01:43:40.058Z,9.70
2022-09-17T01:46:13.658Z,8.00
2022-09-17T01:48:44.477Z,8.10
2022-09-17T01:51:16.369Z,8.00
2022-09-17T01:53:46.897Z,8.00
2022-09-17T01:56:16.745Z,8.00
2022-09-17T01:58:49.477Z,8.00
2022-09-17T02:01:21.486Z,7.90
2022-09-17T02:03:53.864Z,7.90
2022-09-17T02:06:25.633Z,7.90
2022-09-17T02:08:56.366Z,7.90
2022-09-17T02:11:25.163Z,7.90
2022-09-17T02:13:55.312Z,7.90
2022-09-17T02:16:27.106Z,7.90
2022-09-17T02:18:57.185Z,7.90
2022-09-17T02:21:31.208Z,7.90
2022-09-17T02:24:05.128Z,7.90
2022-09-17T02:26:35.686Z,7.90
2022-09-17T02:29:08.813Z,7.90
2022-09-17T02:31:42.584Z,7.90
2022-09-17T02:34:11.624Z,7.90
2022-09-17T02:36:40.294Z,7.80
2022-09-17T02:39:10.090Z,7.90
2022-09-17T02:41:46.578Z,7.90
2022-09-17T02:44:20.058Z,7.90
2022-09-17T02:46:59.473Z,7.90
2022-09-17T02:49:39.737Z,8.00
2022-09-17T02:52:14.560Z,7.90
2022-09-17T02:54:48.199Z,7.90
2022-09-17T02:57:19.480Z,7.90
2022-09-17T02:59:53.550Z,7.90
2022-09-17T03:02:25.256Z,7.80
2022-09-17T03:04:54.096Z,7.70
2022-09-17T03:07:24.178Z,7.70
2022-09-17T03:09:53.017Z,7.70
2022-09-17T03:12:22.206Z,7.60
2022-09-17T03:14:50.843Z,7.70
2022-09-17T03:17:19.400Z,7.60
2022-09-17T03:19:49.436Z,7.50
2022-09-17T03:22:18.124Z,7.50
2022-09-17T03:24:46.807Z,7.50
2022-09-17T03:27:15.400Z,7.50
2022-09-17T03:29:44.469Z,7.40
2022-09-17T03:32:13.016Z,7.40
2022-09-17T03:34:41.575Z,7.40
2022-09-17T03:37:11.496Z,7.40
2022-09-17T03:39:40.110Z,7.30
2022-09-17T03:42:08.814Z,7.20
2022-09-17T03:44:37.499Z,7.30
2022-09-17T03:47:06.191Z,7.20
2022-09-17T03:49:34.833Z,7.10
2022-09-17T03:52:03.480Z,7.00
2022-09-17T03:54:33.430Z,7.00
2022-09-17T03:57:02.115Z,7.00
2022-09-17T03:59:31.068Z,7.10
2022-09-17T04:01:59.902Z,7.10
2022-09-17T04:04:28.491Z,7.20
2022-09-17T04:06:57.311Z,7.10
2022-09-17T04:09:26.797Z,7.10
2022-09-17T04:11:56.995Z,7.10
2022-09-17T04:14:25.686Z,7.10
2022-09-17T04:16:54.435Z,7.10
2022-09-17T04:19:23.004Z,7.10
2022-09-17T04:21:51.717Z,7.10
2022-09-17T04:24:20.353Z,7.10
2022-09-17T04:26:48.967Z,7.10
2022-09-17T04:29:18.946Z,7.10
2022-09-17T04:31:47.606Z,7.10
2022-09-17T04:34:16.322Z,7.10
2022-09-17T04:36:44.930Z,7.20
2022-09-17T04:39:13.526Z,7.20
2022-09-17T04:41:42.120Z,7.30
2022-09-17T04:44:10.886Z,7.20
2022-09-17T04:46:41.164Z,7.30
2022-09-17T04:49:09.875Z,7.30
2022-09-17T04:51:38.442Z,7.40
2022-09-17T04:54:07.101Z,5.80
2022-09-17T04:56:35.869Z,7.50
2022-09-17T04:59:04.575Z,7.50
2022-09-17T05:01:33.236Z,7.50
2022-09-17T05:04:03.394Z,7.50
2022-09-17T05:06:32.026Z,7.60
2022-09-17T05:09:00.577Z,7.60
2022-09-17T05:11:29.356Z,7.40
2022-09-17T05:13:57.880Z,7.70
2022-09-17T05:16:26.657Z,7.80
2022-09-17T05:18:55.808Z,7.80
2022-09-17T05:21:26.260Z,7.90
2022-09-17T05:23:55.235Z,8.00
2022-09-17T05:26:23.930Z,8.10
2022-09-17T05:28:52.639Z,8.10
2022-09-17T05:31:21.281Z,8.10
2022-09-17T05:33:49.911Z,8.20
2022-09-17T05:36:18.957Z,8.30
2022-09-17T05:38:48.998Z,8.50
2022-09-17T05:41:17.734Z,8.60
2022-09-17T05:43:46.295Z,8.60
2022-09-17T05:46:14.963Z,8.70
2022-09-17T05:48:44.052Z,8.80
2022-09-17T05:51:12.994Z,9.00
2022-09-17T05:53:42.503Z,9.00
2022-09-17T05:56:12.768Z,9.20
2022-09-17T05:58:41.393Z,9.30
2022-09-17T06:01:16.045Z,9.40
2022-09-17T06:06:13.401Z,9.60
2022-09-17T06:08:42.168Z,9.70
2022-09-17T06:11:12.586Z,9.80
2022-09-17T06:13:43.578Z,10.00
2022-09-17T06:16:12.528Z,10.40
2022-09-17T06:18:41.129Z,10.70
2022-09-17T06:21:10.113Z,10.90
2022-09-17T06:23:38.695Z,11.00
2022-09-17T06:26:07.487Z,11.00
2022-09-17T06:28:41.439Z,11.10
2022-09-17T06:31:11.816Z,11.10
2022-09-17T06:33:40.602Z,11.10
2022-09-17T06:36:13.977Z,11.10
2022-09-17T07:06:04.784Z,11.70
2022-09-17T07:13:32.252Z,12.00
2022-09-17T07:16:02.708Z,11.90
2022-09-17T07:18:32.510Z,12.10
2022-09-17T07:23:31.994Z,12.30
2022-09-17T07:26:01.530Z,12.50
2022-09-17T07:28:30.453Z,12.70
2022-09-17T07:31:00.269Z,12.60
2022-09-17T07:33:29.093Z,12.60
2022-09-17T07:35:58.463Z,12.50
2022-09-17T07:38:27.783Z,12.50
2022-09-17T07:41:01.568Z,12.30
2022-09-17T07:43:32.841Z,12.20
2022-09-17T07:46:02.698Z,11.90
2022-09-17T07:48:31.729Z,11.70
2022-09-17T07:51:00.568Z,11.60
2022-09-17T07:53:29.386Z,11.50
2022-09-17T07:55:58.832Z,11.70
2022-09-17T07:58:31.679Z,11.90
2022-09-17T08:03:28.989Z,12.20
2022-09-17T08:06:04.120Z,12.20
2022-09-17T08:08:34.112Z,12.30
2022-09-17T08:11:03.491Z,12.30
2022-09-17T08:13:33.516Z,12.10
2022-09-17T08:16:02.533Z,12.00
2022-09-17T08:18:32.164Z,11.90
2022-09-17T08:21:01.515Z,11.90
2022-09-17T08:23:30.961Z,11.70
2022-09-17T08:26:00.472Z,11.70
2022-09-17T08:28:30.402Z,11.90
2022-09-17T08:31:03.562Z,12.00
2022-09-17T08:36:00.997Z,12.70
2022-09-17T08:38:32.515Z,13.00
2022-09-17T08:41:12.736Z,13.20
2022-09-17T08:43:45.818Z,13.20
2022-09-17T08:46:15.931Z,13.20
2022-09-17T08:48:46.626Z,13.30
2022-09-17T08:51:25.048Z,13.20
2022-09-17T08:53:58.889Z,13.30
2022-09-17T08:56:27.996Z,13.50
2022-09-17T08:59:13.170Z,13.50
2022-09-17T09:01:46.827Z,13.40
2022-09-17T09:04:33.564Z,13.30
2022-09-17T09:07:03.703Z,13.20
2022-09-17T09:09:36.548Z,13.30
2022-09-17T09:12:07.593Z,13.30
2022-09-17T09:14:38.551Z,13.20
2022-09-17T09:17:09.856Z,13.20
2022-09-17T09:19:43.199Z,13.20
2022-09-17T09:22:28.754Z,15.40
2022-09-17T09:25:04.985Z,13.00
2022-09-17T09:27:37.433Z,12.90
2022-09-17T09:30:07.304Z,13.00
2022-09-17T09:32:45.434Z,13.20
2022-09-17T09:35:17.429Z,13.20
2022-09-17T09:40:21.489Z,13.00
2022-09-17T09:42:52.574Z,12.90
2022-09-17T09:47:56.855Z,12.70
2022-09-17T09:50:54.779Z,12.90
2022-09-17T09:53:28.736Z,12.90
2022-09-17T09:56:06.640Z,12.90
2022-09-17T09:58:36.517Z,13.10
2022-09-17T10:01:05.234Z,13.10
2022-09-17T10:03:37.869Z,13.20
2022-09-17T10:06:08.185Z,13.20
2022-09-17T10:08:37.865Z,13.30
2022-09-17T10:11:07.415Z,13.30
2022-09-17T10:13:36.994Z,13.60
2022-09-17T10:23:37.975Z,13.50
2022-09-17T10:26:06.735Z,13.40
2022-09-17T10:28:39.907Z,13.50
2022-09-17T10:31:11.572Z,13.50
2022-09-17T10:33:41.942Z,13.40
2022-09-17T10:36:14.909Z,13.50
2022-09-17T10:38:46.574Z,13.50
2022-09-17T10:41:17.055Z,13.60
2022-09-17T10:43:46.227Z,13.60
2022-09-17T10:46:21.902Z,13.70
2022-09-17T10:49:08.383Z,13.90
2022-09-17T10:51:37.990Z,15.10
2022-09-17T10:54:21.556Z,14.20
2022-09-17T10:56:54.272Z,14.30
2022-09-17T10:59:41.663Z,14.70
2022-09-17T11:02:23.283Z,15.00
2022-09-17T11:04:56.789Z,15.40
2022-09-17T11:07:35.285Z,15.60
2022-09-17T11:10:13.743Z,15.70
2022-09-17T11:12:51.916Z,15.70
2022-09-17T11:15:28.256Z,15.80
2022-09-17T11:18:05.275Z,15.90
2022-09-17T11:20:46.029Z,16.20
2022-09-17T11:23:24.352Z,16.40
2022-09-17T11:26:00.274Z,16.40
2022-09-17T11:28:37.655Z,16.40
2022-09-17T11:31:10.387Z,16.40
2022-09-17T11:34:00.082Z,16.50
2022-09-17T11:36:30.960Z,16.40
2022-09-17T11:39:01.441Z,16.10
2022-09-17T11:41:32.768Z,17.10
2022-09-17T11:44:09.343Z,15.70
2022-09-17T11:46:42.376Z,15.40
2022-09-17T11:49:13.789Z,15.00
2022-09-17T11:51:45.005Z,15.00
2022-09-17T11:54:20.663Z,14.90
2022-09-17T11:56:51.997Z,14.80
2022-09-17T11:59:26.412Z,14.90
2022-09-17T12:01:58.755Z,15.00
2022-09-17T12:04:39.255Z,15.10
2022-09-17T12:07:12.205Z,15.30
2022-09-17T12:09:44.672Z,15.40
2022-09-17T12:12:37.786Z,15.40
2022-09-17T12:15:14.244Z,15.50
2022-09-17T12:17:45.862Z,15.70
2022-09-17T12:20:21.579Z,15.50
2022-09-17T12:22:51.672Z,15.60
2022-09-17T12:25:20.379Z,15.70
2022-09-17T12:27:52.821Z,15.80
2022-09-17T12:30:26.257Z,15.90
2022-09-17T12:33:08.621Z,16.10
2022-09-17T12:36:05.301Z,16.20
2022-09-17T12:38:42.646Z,16.10
2022-09-17T12:43:54.888Z,15.40
2022-09-17T12:46:31.756Z,15.20
2022-09-17T12:49:21.421Z,15.10
2022-09-17T12:51:55.355Z,15.10
2022-09-17T12:54:32.448Z,14.90
2022-09-17T12:57:06.051Z,14.90
2022-09-17T12:59:36.643Z,14.70
2022-09-17T13:02:15.211Z,14.60
2022-09-17T13:05:01.351Z,14.60
2022-09-17T13:07:45.209Z,14.60
2022-09-17T13:10:21.797Z,14.70
2022-09-17T13:12:55.022Z,14.70
2022-09-17T13:15:35.271Z,14.60
2022-09-17T13:18:24.031Z,14.60
2022-09-17T13:21:02.412Z,14.50
2022-09-17T13:23:35.894Z,14.40
2022-09-17T13:26:06.906Z,14.30
2022-09-17T13:28:44.630Z,14.20
2022-09-17T13:31:20.912Z,14.10
2022-09-17T13:33:51.933Z,14.10
2022-09-17T13:36:39.473Z,14.10
2022-09-17T13:39:09.395Z,14.30
2022-09-17T13:44:07.859Z,14.30
2022-09-17T13:46:37.543Z,14.20
2022-09-17T13:49:14.084Z,14.10
2022-09-17T13:52:00.581Z,14.00
2022-09-17T13:54:37.567Z,14.00
2022-09-17T13:57:09.430Z,14.00
2022-09-17T13:59:38.513Z,14.10
2022-09-17T14:02:30.886Z,14.20
2022-09-17T14:05:15.926Z,14.20
2022-09-17T14:07:51.175Z,14.40
2022-09-17T14:12:52.791Z,14.60
2022-09-17T14:15:39.473Z,14.70
2022-09-17T14:18:26.871Z,14.90
2022-09-17T14:20:56.799Z,14.90
2022-09-17T14:23:27.182Z,14.60
2022-09-17T14:25:56.899Z,15.00
2022-09-17T14:28:31.311Z,15.00
2022-09-17T14:31:00.652Z,14.80
2022-09-17T14:33:32.068Z,14.80
2022-09-17T14:38:33.986Z,14.50
2022-09-17T14:41:06.052Z,14.40
2022-09-17T14:43:39.526Z,14.50
2022-09-17T14:46:12.109Z,14.20
2022-09-17T14:48:40.940Z,14.40
2022-09-17T14:51:18.978Z,14.40
2022-09-17T14:53:49.879Z,14.60
2022-09-17T14:56:20.699Z,14.70
2022-09-17T14:58:50.478Z,14.90
2022-09-17T15:01:23.565Z,15.00
2022-09-17T15:04:08.806Z,15.40
2022-09-17T15:09:07.664Z,15.20
2022-09-17T15:11:37.512Z,15.60
2022-09-17T15:14:07.762Z,15.00
2022-09-17T15:16:36.899Z,14.60
2022-09-17T15:19:05.645Z,14.30
2022-09-17T15:21:35.686Z,14.10
2022-09-17T15:24:20.963Z,14.10
2022-09-17T15:26:53.591Z,14.00
2022-09-17T15:29:23.986Z,13.80
2022-09-17T15:31:53.179Z,13.80
2022-09-17T15:34:22.892Z,13.60
2022-09-17T15:37:18.025Z,13.40
2022-09-17T15:39:50.837Z,13.30
2022-09-17T15:42:22.745Z,13.20
2022-09-17T15:44:52.292Z,13.10
2022-09-17T15:47:49.376Z,13.00
2022-09-17T15:50:19.325Z,13.00
2022-09-17T15:52:48.528Z,13.00
2022-09-17T15:55:36.343Z,12.90
2022-09-17T15:58:18.804Z,12.90
2022-09-17T16:00:47.711Z,12.90
2022-09-17T16:03:48.767Z,12.90
2022-09-17T16:06:33.299Z,12.90
2022-09-17T16:09:02.890Z,12.90
2022-09-17T16:11:32.360Z,13.00
2022-09-17T16:14:02.435Z,12.90
2022-09-17T16:16:34.061Z,12.90
2022-09-17T16:19:02.978Z,12.80
2022-09-17T16:21:32.222Z,12.80
2022-09-17T16:24:00.882Z,12.80
2022-09-17T16:26:31.173Z,12.80
2022-09-17T16:29:01.216Z,12.70
2022-09-17T16:31:31.453Z,12.70
2022-09-17T16:34:00.812Z,12.70
2022-09-17T16:36:32.191Z,12.60
2022-09-17T16:39:01.273Z,12.40
2022-09-17T16:41:29.947Z,12.20
2022-09-17T16:43:58.845Z,12.00
2022-09-17T16:46:28.138Z,11.80
2022-09-17T16:48:58.240Z,11.60
2022-09-17T16:51:26.988Z,11.40
2022-09-17T16:53:57.688Z,11.30
2022-09-17T16:56:26.586Z,11.20
2022-09-17T16:58:55.828Z,11.00
2022-09-17T17:01:24.540Z,11.00
2022-09-17T17:03:54.276Z,10.90
2022-09-17T17:06:24.402Z,10.70
2022-09-17T17:08:53.487Z,10.70
2022-09-17T17:13:51.201Z,10.80
2022-09-17T17:16:19.868Z,11.00
2022-09-17T17:18:49.098Z,10.60
2022-09-17T17:21:18.478Z,10.60
2022-09-17T17:23:49.021Z,10.00
2022-09-17T17:26:17.725Z,10.30
2022-09-17T17:28:46.741Z,10.20
2022-09-17T17:31:15.396Z,10.10
2022-09-17T17:33:45.346Z,10.00
2022-09-17T17:36:14.336Z,9.80
2022-09-17T17:38:43.107Z,9.70
2022-09-17T17:41:14.380Z,9.60
2022-09-17T17:43:43.224Z,9.50
2022-09-17T17:46:14.414Z,9.40
2022-09-17T17:48:43.907Z,9.40
2022-09-17T17:51:13.221Z,9.30
2022-09-17T17:53:43.457Z,9.80
2022-09-17T17:56:14.254Z,9.20
2022-09-17T17:58:42.844Z,9.10
2022-09-17T18:01:13.122Z,9.10
2022-09-17T18:03:42.129Z,9.20
2022-09-17T18:06:10.696Z,9.20
2022-09-17T18:08:40.180Z,9.20
2022-09-17T18:11:10.334Z,9.20
2022-09-17T18:13:40.814Z,9.30
2022-09-17T18:16:12.071Z,9.30
2022-09-17T18:18:44.635Z,9.30
2022-09-17T18:21:15.155Z,9.30
2022-09-17T18:23:44.085Z,9.40
2022-09-17T18:26:13.531Z,9.40
2022-09-17T18:28:44.071Z,9.40
2022-09-17T18:31:18.968Z,9.40
2022-09-17T18:33:47.768Z,9.30
2022-09-17T18:36:16.382Z,9.20
2022-09-17T18:38:45.164Z,9.10
2022-09-17T18:41:14.276Z,9.20
2022-09-17T18:43:44.659Z,9.20
2022-09-17T18:46:13.656Z,9.10
2022-09-17T18:48:42.735Z,9.10
2022-09-17T18:51:12.421Z,9.10
2022-09-17T18:53:40.998Z,9.10
2022-09-17T18:56:13.204Z,9.00
2022-09-17T18:58:42.051Z,9.00
2022-09-17T19:01:12.275Z,9.00
2022-09-17T19:03:41.474Z,9.00
2022-09-17T19:06:11.468Z,9.10
2022-09-17T19:08:40.342Z,9.20
2022-09-17T19:11:09.157Z,9.10
2022-09-17T19:13:38.814Z,9.20
2022-09-17T19:16:08.031Z,9.20
2022-09-17T19:18:38.198Z,9.30
2022-09-17T19:21:08.057Z,9.30
2022-09-17T19:23:37.014Z,9.30
2022-09-17T19:26:07.047Z,9.30
2022-09-17T19:28:35.985Z,9.40
2022-09-17T19:31:05.289Z,9.40
2022-09-17T19:33:34.578Z,9.50
2022-09-17T19:36:05.760Z,9.50
2022-09-17T19:38:34.451Z,9.60
2022-09-17T19:41:04.052Z,9.80
2022-09-17T19:43:32.668Z,10.00
2022-09-17T19:46:01.840Z,10.00
2022-09-17T19:48:30.950Z,10.00
2022-09-17T19:50:59.885Z,9.90
2022-09-17T19:53:30.168Z,9.80
2022-09-17T19:55:58.862Z,9.80
2022-09-17T19:58:27.662Z,9.70
2022-09-17T20:01:10.470Z,9.70
2022-09-17T20:03:40.740Z,9.70
2022-09-17T20:06:11.332Z,9.60
2022-09-17T20:08:47.198Z,9.60
2022-09-17T20:11:16.373Z,9.50
2022-09-17T20:13:45.147Z,9.50
2022-09-17T20:16:15.826Z,9.40
2022-09-17T20:18:44.983Z,9.40
2022-09-17T20:21:14.522Z,9.40
2022-09-17T20:23:43.287Z,9.40
2022-09-17T20:26:13.790Z,9.40
2022-09-17T20:28:42.757Z,9.50
2022-09-17T20:31:13.030Z,9.40
2022-09-17T20:33:41.984Z,9.40
2022-09-17T20:36:12.348Z,9.40
2022-09-17T20:41:32.502Z,9.20
2022-09-17T20:44:01.262Z,9.20
2022-09-17T20:46:30.086Z,9.30
2022-09-17T20:48:59.020Z,9.30
2022-09-17T20:51:28.734Z,9.30
2022-09-17T20:53:58.185Z,9.20
2022-09-17T20:56:27.466Z,9.20
2022-09-17T20:59:04.071Z,9.30
2022-09-17T21:01:34.667Z,9.30
2022-09-17T21:04:03.795Z,9.20
2022-09-17T21:06:33.272Z,9.20
2022-09-17T21:09:02.466Z,9.20
2022-09-17T21:11:32.252Z,9.10
2022-09-17T21:14:02.228Z,9.10
2022-09-17T21:16:31.324Z,9.20
2022-09-17T21:19:01.601Z,9.20
2022-09-17T21:21:30.798Z,9.10
2022-09-17T21:24:01.427Z,9.10
2022-09-17T21:26:30.323Z,9.10
2022-09-17T21:28:59.230Z,9.00
2022-09-17T21:31:32.802Z,9.00
2022-09-17T21:34:04.047Z,9.00
2022-09-17T21:36:33.841Z,9.00
2022-09-17T21:39:03.814Z,8.90
2022-09-17T21:41:32.846Z,8.90
2022-09-17T21:44:01.580Z,9.00
2022-09-17T21:46:34.059Z,9.00
2022-09-17T21:49:03.255Z,8.90
2022-09-17T21:51:34.121Z,8.90
2022-09-17T21:54:03.853Z,8.90
2022-09-17T21:56:32.987Z,8.90
2022-09-17T21:59:02.587Z,9.00
2022-09-17T22:01:35.610Z,9.00
2022-09-17T22:04:04.332Z,9.00
2022-09-17T22:06:33.083Z,9.00
2022-09-17T22:09:03.581Z,8.90
2022-09-17T22:11:33.683Z,8.90
2022-09-17T22:14:05.305Z,8.90
2022-09-17T22:16:36.113Z,8.90
2022-09-17T22:19:05.023Z,9.00
2022-09-17T22:21:34.955Z,8.90
2022-09-17T22:24:05.064Z,8.90
2022-09-17T22:26:35.045Z,8.80
2022-09-17T22:29:04.680Z,8.80
2022-09-17T22:31:33.742Z,8.70
2022-09-17T22:34:03.899Z,8.80
2022-09-17T22:36:32.662Z,8.80
2022-09-17T22:39:01.331Z,8.80
2022-09-17T22:41:30.785Z,8.80
2022-09-17T22:44:00.423Z,8.80
2022-09-17T22:46:30.543Z,8.80
2022-09-17T22:48:59.441Z,8.80
2022-09-17T22:51:32.233Z,8.80
2022-09-17T22:54:01.316Z,8.80
2022-09-17T22:56:30.540Z,8.80
2022-09-17T22:58:59.761Z,8.80
2022-09-17T23:01:29.979Z,8.70
2022-09-17T23:03:59.191Z,8.70
2022-09-17T23:06:30.021Z,8.70
2022-09-17T23:08:59.374Z,8.80
2022-09-17T23:11:29.542Z,8.70
2022-09-17T23:14:01.495Z,8.70
2022-09-17T23:16:30.844Z,8.70
2022-09-17T23:18:59.577Z,8.60
2022-09-17T23:21:29.487Z,8.70
2022-09-17T23:23:58.457Z,8.50
2022-09-17T23:26:27.880Z,8.50
2022-09-17T23:28:59.052Z,8.60
2022-09-17T23:31:31.417Z,8.60
2022-09-17T23:34:00.242Z,8.50
2022-09-17T23:36:31.000Z,8.50
2022-09-17T23:39:00.169Z,8.40
2022-09-17T23:41:29.299Z,8.40
2022-09-17T23:43:58.785Z,7.90
2022-09-17T23:46:28.502Z,8.30
2022-09-17T23:48:57.214Z,8.40
2022-09-17T23:51:26.395Z,8.40
2022-09-17T23:53:56.401Z,8.30
2022-09-17T23:56:26.166Z,8.40
2022-09-17T23:58:55.294Z,8.20
